Key Colony Beach, FL

1:28 PM EST on February 07, 2016 (GMT -0500)
Little Venice House Rooftop | | Change Station
CLOSE
Current Station
Personal Weather Station
Location: Marathon, FL
Elevation: 20 ft
Nearby Weather Stations

Elev 20 ft 24.73 °N, 81.03 °W | Updated 4 seconds ago

Partly Cloudy
Partly Cloudy
0.0 °F
Feels Like -12 °F
N
6.0
Wind Variable Wind from WNW
Gusts 20.0 mph

Today
High -- | Low -- °F
--% Chance of Precip.
Yesterday
High -- | Low -- °F
Precip. -- in
Pressure 30.09 in
Visibility 10.0 miles
Clouds Scattered Clouds 3500 ft
Mostly Cloudy 6000 ft
Windchill -12 °F
Dew Point Not available.
Humidity Not available.
Rainfall 0.05 in
Snow Depth Not available.
7:03 AM 6:13 PM
Waning Crescent, 1% visible
METAR KNQX 071753Z 33017G26KT 10SM SCT035 BKN060 19/11 A3009 RMK AO2 PK WND 33027/1737 SLP187 60006 T01890111 10189 20139 58005 $
Pressure 30.09 in
Visibility 10.0 miles
Clouds Scattered Clouds 3500 ft
Mostly Cloudy 6000 ft
Windchill -12 °F
Dew Point Not available.
Humidity Not available.
Rainfall 0.05 in
Snow Depth Not available.
7:03 AM 6:13 PM
Waning Crescent, 1% visible
METAR KNQX 071753Z 33017G26KT 10SM SCT035 BKN060 19/11 A3009 RMK AO2 PK WND 33027/1737 SLP187 60006 T01890111 10189 20139 58005 $

10-Day Weather Forecast

Almanac

Astronomy

Feb. 07, 2016 Rise Set
Actual Time
Civil Twilight
Nautical Twilight
Astronomical Twilight
Moon
Length of Visible Light
Length of Day
Tomorrow will be .
, % of the Moon is Illuminated

Today's Extremes

State Highs State Lows

Community

WunderPhotos

Upload Photos

1,891,276 photos uploaded!

WunderBlog® & News

Nearby

Air Quality

  Air Quality AQ Index Pollutant
Not available.

Snow Depth

Station Depth Elevation

Earthquake Activity

City Distance Mag. Time & Date
Minimum magnitude displayed is 2.5.

Coastal Water Temperatures

Place Temperature

Stations

Nearby Weather Stations

Station Location Temp. Windchill Dew Point Humidity Wind Precip. Elev Updated Type
                   

Watches & Warnings

There are currently no watches in effect.